sensor_id;sensor_type;location;lat;lon;timestamp;pressure;altitude;pressure_sealevel;temperature;humidity
13387;BME280;6763;48.524;9.044;2023-02-18T00:01:53;98757.66;;;16.94;49.06
13387;BME280;6763;48.524;9.044;2023-02-18T00:04:18;98766.59;;;16.85;49.69
13387;BME280;6763;48.524;9.044;2023-02-18T00:06:44;98768.94;;;16.94;49.40
13387;BME280;6763;48.524;9.044;2023-02-18T00:09:09;98776.16;;;16.86;49.73
13387;BME280;6763;48.524;9.044;2023-02-18T00:11:35;98761.22;;;16.90;49.43
13387;BME280;6763;48.524;9.044;2023-02-18T00:14:03;98753.47;;;16.87;49.61
13387;BME280;6763;48.524;9.044;2023-02-18T00:16:29;98753.38;;;16.90;49.46
13387;BME280;6763;48.524;9.044;2023-02-18T00:18:56;98754.16;;;16.93;49.29
13387;BME280;6763;48.524;9.044;2023-02-18T00:21:22;98749.03;;;16.90;49.88
13387;BME280;6763;48.524;9.044;2023-02-18T00:23:47;98743.78;;;16.90;49.43
13387;BME280;6763;48.524;9.044;2023-02-18T00:26:15;98737.78;;;16.87;49.44
13387;BME280;6763;48.524;9.044;2023-02-18T00:28:41;98741.09;;;16.93;49.20
13387;BME280;6763;48.524;9.044;2023-02-18T00:31:08;98738.06;;;16.78;49.60
13387;BME280;6763;48.524;9.044;2023-02-18T00:33:34;98738.09;;;16.76;49.53
13387;BME280;6763;48.524;9.044;2023-02-18T00:36:01;98744.44;;;16.67;49.74
13387;BME280;6763;48.524;9.044;2023-02-18T00:38:27;98736.56;;;16.69;50.04
13387;BME280;6763;48.524;9.044;2023-02-18T00:40:52;98733.56;;;16.83;49.59
13387;BME280;6763;48.524;9.044;2023-02-18T00:43:17;98734.31;;;16.86;49.91
13387;BME280;6763;48.524;9.044;2023-02-18T00:45:43;98733.69;;;16.78;49.87
13387;BME280;6763;48.524;9.044;2023-02-18T00:48:08;98742.03;;;16.60;50.42
13387;BME280;6763;48.524;9.044;2023-02-18T00:50:33;98737.34;;;16.71;50.14
13387;BME280;6763;48.524;9.044;2023-02-18T00:52:58;98730.22;;;16.78;49.80
13387;BME280;6763;48.524;9.044;2023-02-18T00:55:24;98717.88;;;16.81;49.27
13387;BME280;6763;48.524;9.044;2023-02-18T00:57:49;98720.56;;;16.80;49.22
13387;BME280;6763;48.524;9.044;2023-02-18T01:00:15;98712.22;;;16.65;49.76
13387;BME280;6763;48.524;9.044;2023-02-18T01:02:40;98712.00;;;16.74;49.42
13387;BME280;6763;48.524;9.044;2023-02-18T01:05:06;98707.84;;;16.67;49.55
13387;BME280;6763;48.524;9.044;2023-02-18T01:07:31;98716.00;;;16.57;49.97
13387;BME280;6763;48.524;9.044;2023-02-18T01:09:56;98699.34;;;16.59;49.81
13387;BME280;6763;48.524;9.044;2023-02-18T01:12:22;98695.88;;;16.59;49.63
13387;BME280;6763;48.524;9.044;2023-02-18T01:14:47;98703.00;;;16.54;49.67
13387;BME280;6763;48.524;9.044;2023-02-18T01:17:12;98709.03;;;16.56;49.51
13387;BME280;6763;48.524;9.044;2023-02-18T01:19:37;98713.28;;;16.60;49.42
13387;BME280;6763;48.524;9.044;2023-02-18T01:22:03;98714.78;;;16.68;49.37
13387;BME280;6763;48.524;9.044;2023-02-18T01:24:30;98705.91;;;16.74;48.70
13387;BME280;6763;48.524;9.044;2023-02-18T01:26:58;98695.22;;;16.82;48.57
13387;BME280;6763;48.524;9.044;2023-02-18T01:29:24;98708.44;;;16.77;48.70
13387;BME280;6763;48.524;9.044;2023-02-18T01:31:50;98706.59;;;16.81;48.57
13387;BME280;6763;48.524;9.044;2023-02-18T01:34:15;98702.31;;;16.78;48.45
13387;BME280;6763;48.524;9.044;2023-02-18T01:36:40;98697.13;;;16.77;48.64
13387;BME280;6763;48.524;9.044;2023-02-18T01:39:06;98698.34;;;16.65;48.98
13387;BME280;6763;48.524;9.044;2023-02-18T01:41:32;98697.56;;;16.61;49.20
13387;BME280;6763;48.524;9.044;2023-02-18T01:44:18;98695.72;;;16.65;48.63
13387;BME280;6763;48.524;9.044;2023-02-18T01:46:43;98693.44;;;16.53;49.04
13387;BME280;6763;48.524;9.044;2023-02-18T01:49:13;98695.41;;;16.43;49.60
13387;BME280;6763;48.524;9.044;2023-02-18T01:51:46;98702.47;;;16.40;49.60
13387;BME280;6763;48.524;9.044;2023-02-18T01:54:33;98705.94;;;16.40;49.51
13387;BME280;6763;48.524;9.044;2023-02-18T01:57:05;98691.28;;;16.35;49.71
13387;BME280;6763;48.524;9.044;2023-02-18T01:59:46;98694.16;;;16.26;49.88
13387;BME280;6763;48.524;9.044;2023-02-18T02:02:17;98691.91;;;16.12;50.76
13387;BME280;6763;48.524;9.044;2023-02-18T02:04:43;98692.25;;;15.98;51.21
13387;BME280;6763;48.524;9.044;2023-02-18T02:07:10;98696.53;;;16.01;51.09
13387;BME280;6763;48.524;9.044;2023-02-18T02:09:36;98675.13;;;15.88;51.20
13387;BME280;6763;48.524;9.044;2023-02-18T02:15:08;98677.19;;;15.76;51.72
13387;BME280;6763;48.524;9.044;2023-02-18T02:34:54;98662.84;;;15.92;50.86
13387;BME280;6763;48.524;9.044;2023-02-18T02:37:17;98657.66;;;15.90;50.72
13387;BME280;6763;48.524;9.044;2023-02-18T02:53:28;98659.13;;;16.33;49.43
13387;BME280;6763;48.524;9.044;2023-02-18T02:55:55;98662.34;;;16.42;49.26
13387;BME280;6763;48.524;9.044;2023-02-18T02:58:20;98656.09;;;16.48;48.98
13387;BME280;6763;48.524;9.044;2023-02-18T03:17:24;98657.88;;;16.46;48.74
13387;BME280;6763;48.524;9.044;2023-02-18T03:19:57;98654.47;;;16.44;48.39
13387;BME280;6763;48.524;9.044;2023-02-18T03:22:33;98651.06;;;16.42;48.58
13387;BME280;6763;48.524;9.044;2023-02-18T03:25:02;98642.16;;;16.47;48.40
13387;BME280;6763;48.524;9.044;2023-02-18T03:27:36;98654.53;;;16.41;48.46
13387;BME280;6763;48.524;9.044;2023-02-18T03:30:10;98647.22;;;16.23;48.96
13387;BME280;6763;48.524;9.044;2023-02-18T03:32:37;98653.03;;;16.32;48.93
13387;BME280;6763;48.524;9.044;2023-02-18T03:35:08;98647.94;;;16.28;48.69
13387;BME280;6763;48.524;9.044;2023-02-18T03:37:41;98640.03;;;16.31;48.91
13387;BME280;6763;48.524;9.044;2023-02-18T03:40:08;98635.84;;;16.25;48.96
13387;BME280;6763;48.524;9.044;2023-02-18T03:42:35;98639.00;;;16.05;49.41
13387;BME280;6763;48.524;9.044;2023-02-18T03:45:00;98627.72;;;16.03;49.18
13387;BME280;6763;48.524;9.044;2023-02-18T03:47:26;98615.66;;;15.98;49.48
13387;BME280;6763;48.524;9.044;2023-02-18T03:49:51;98604.97;;;15.76;50.27
13387;BME280;6763;48.524;9.044;2023-02-18T03:52:17;98600.16;;;15.61;50.73
13387;BME280;6763;48.524;9.044;2023-02-18T03:54:45;98596.63;;;15.62;50.81
13387;BME280;6763;48.524;9.044;2023-02-18T03:57:10;98603.63;;;15.60;51.00
13387;BME280;6763;48.524;9.044;2023-02-18T03:59:36;98607.69;;;15.72;50.46
13387;BME280;6763;48.524;9.044;2023-02-18T04:02:01;98601.91;;;15.59;50.65
13387;BME280;6763;48.524;9.044;2023-02-18T04:04:28;98604.63;;;15.56;50.80
13387;BME280;6763;48.524;9.044;2023-02-18T04:06:53;98600.97;;;15.62;50.53
13387;BME280;6763;48.524;9.044;2023-02-18T04:09:19;98594.06;;;15.61;50.53
13387;BME280;6763;48.524;9.044;2023-02-18T04:11:44;98605.47;;;15.57;50.76
13387;BME280;6763;48.524;9.044;2023-02-18T04:14:12;98615.88;;;15.58;50.69
13387;BME280;6763;48.524;9.044;2023-02-18T04:16:38;98612.41;;;15.58;50.60
13387;BME280;6763;48.524;9.044;2023-02-18T04:19:03;98610.78;;;15.52;50.80
13387;BME280;6763;48.524;9.044;2023-02-18T04:21:28;98615.16;;;15.51;50.82
13387;BME280;6763;48.524;9.044;2023-02-18T04:23:53;98611.66;;;15.52;50.72
13387;BME280;6763;48.524;9.044;2023-02-18T04:26:19;98616.00;;;15.54;50.58
13387;BME280;6763;48.524;9.044;2023-02-18T04:28:44;98616.09;;;15.49;50.90
13387;BME280;6763;48.524;9.044;2023-02-18T04:31:09;98614.41;;;15.46;50.64
13387;BME280;6763;48.524;9.044;2023-02-18T04:33:35;98606.59;;;15.46;50.76
13387;BME280;6763;48.524;9.044;2023-02-18T04:36:01;98608.47;;;15.40;51.16
13387;BME280;6763;48.524;9.044;2023-02-18T04:38:26;98620.91;;;15.29;51.57
13387;BME280;6763;48.524;9.044;2023-02-18T04:40:51;98611.28;;;15.32;51.54
13387;BME280;6763;48.524;9.044;2023-02-18T04:43:17;98613.72;;;15.38;51.27
13387;BME280;6763;48.524;9.044;2023-02-18T04:45:42;98619.78;;;15.40;51.08
13387;BME280;6763;48.524;9.044;2023-02-18T04:48:07;98618.94;;;15.38;51.16
13387;BME280;6763;48.524;9.044;2023-02-18T04:50:35;98621.53;;;15.40;51.06
13387;BME280;6763;48.524;9.044;2023-02-18T04:53:01;98612.94;;;15.35;50.80
13387;BME280;6763;48.524;9.044;2023-02-18T04:55:29;98615.81;;;15.24;50.92
13387;BME280;6763;48.524;9.044;2023-02-18T04:57:54;98606.56;;;15.11;51.12
13387;BME280;6763;48.524;9.044;2023-02-18T05:00:20;98607.75;;;14.98;51.53
13387;BME280;6763;48.524;9.044;2023-02-18T05:02:46;98608.84;;;14.88;51.94
13387;BME280;6763;48.524;9.044;2023-02-18T05:05:12;98615.13;;;14.79;52.30
13387;BME280;6763;48.524;9.044;2023-02-18T05:07:38;98609.25;;;14.70;52.44
13387;BME280;6763;48.524;9.044;2023-02-18T05:10:05;98613.72;;;14.63;52.69
13387;BME280;6763;48.524;9.044;2023-02-18T05:12:30;98600.84;;;14.57;52.54
13387;BME280;6763;48.524;9.044;2023-02-18T05:14:56;98606.13;;;14.54;53.15
13387;BME280;6763;48.524;9.044;2023-02-18T05:17:21;98605.25;;;14.54;53.16
13387;BME280;6763;48.524;9.044;2023-02-18T05:19:46;98602.59;;;14.57;53.24
13387;BME280;6763;48.524;9.044;2023-02-18T05:22:12;98601.69;;;14.58;53.15
13387;BME280;6763;48.524;9.044;2023-02-18T05:24:37;98604.28;;;14.58;53.20
13387;BME280;6763;48.524;9.044;2023-02-18T05:27:02;98606.00;;;14.60;53.19
13387;BME280;6763;48.524;9.044;2023-02-18T05:29:28;98612.03;;;14.61;53.51
13387;BME280;6763;48.524;9.044;2023-02-18T05:31:53;98604.16;;;14.65;53.47
13387;BME280;6763;48.524;9.044;2023-02-18T05:34:18;98600.56;;;14.69;53.27
13387;BME280;6763;48.524;9.044;2023-02-18T05:36:44;98604.84;;;14.72;53.59
13387;BME280;6763;48.524;9.044;2023-02-18T05:39:09;98602.06;;;14.81;53.32
13387;BME280;6763;48.524;9.044;2023-02-18T05:41:34;98607.16;;;14.85;53.28
13387;BME280;6763;48.524;9.044;2023-02-18T05:44:00;98607.94;;;14.89;52.79
13387;BME280;6763;48.524;9.044;2023-02-18T05:46:44;98612.22;;;14.91;53.06
13387;BME280;6763;48.524;9.044;2023-02-18T05:49:09;98605.25;;;14.92;52.76
13387;BME280;6763;48.524;9.044;2023-02-18T05:51:34;98612.22;;;14.91;53.14
13387;BME280;6763;48.524;9.044;2023-02-18T05:54:00;98617.44;;;14.91;52.99
13387;BME280;6763;48.524;9.044;2023-02-18T05:56:25;98613.09;;;14.92;53.01
13387;BME280;6763;48.524;9.044;2023-02-18T05:58:50;98617.41;;;14.93;52.86
13387;BME280;6763;48.524;9.044;2023-02-18T06:01:16;98608.69;;;14.94;52.72
13387;BME280;6763;48.524;9.044;2023-02-18T06:03:41;98609.53;;;14.96;52.58
13387;BME280;6763;48.524;9.044;2023-02-18T06:06:06;98606.06;;;14.96;52.48
13387;BME280;6763;48.524;9.044;2023-02-18T06:08:32;98611.22;;;14.99;52.73
13387;BME280;6763;48.524;9.044;2023-02-18T06:10:57;98599.78;;;15.04;52.46
13387;BME280;6763;48.524;9.044;2023-02-18T06:13:23;98603.16;;;15.09;52.32
13387;BME280;6763;48.524;9.044;2023-02-18T06:15:51;98605.50;;;15.20;52.18
13387;BME280;6763;48.524;9.044;2023-02-18T06:18:18;98602.59;;;15.30;51.81
13387;BME280;6763;48.524;9.044;2023-02-18T06:20:43;98605.00;;;15.39;51.67
13387;BME280;6763;48.524;9.044;2023-02-18T06:23:10;98607.19;;;15.58;50.90
13387;BME280;6763;48.524;9.044;2023-02-18T06:25:35;98607.09;;;15.61;50.62
13387;BME280;6763;48.524;9.044;2023-02-18T06:28:04;98614.06;;;15.60;50.65
13387;BME280;6763;48.524;9.044;2023-02-18T06:30:29;98607.03;;;15.64;50.79
13387;BME280;6763;48.524;9.044;2023-02-18T06:32:55;98597.34;;;15.67;50.49
13387;BME280;6763;48.524;9.044;2023-02-18T06:35:20;98597.28;;;15.70;50.54
13387;BME280;6763;48.524;9.044;2023-02-18T06:37:45;98590.19;;;15.75;50.42
13387;BME280;6763;48.524;9.044;2023-02-18T06:40:12;98589.91;;;15.86;50.03
13387;BME280;6763;48.524;9.044;2023-02-18T06:42:37;98595.84;;;15.92;50.10
13387;BME280;6763;48.524;9.044;2023-02-18T06:45:02;98587.78;;;16.00;49.72
13387;BME280;6763;48.524;9.044;2023-02-18T06:47:30;98590.91;;;16.12;49.33
13387;BME280;6763;48.524;9.044;2023-02-18T06:49:56;98589.69;;;16.24;49.02
13387;BME280;6763;48.524;9.044;2023-02-18T06:52:21;98586.97;;;16.29;49.13
13387;BME280;6763;48.524;9.044;2023-02-18T06:54:46;98583.72;;;16.21;48.97
13387;BME280;6763;48.524;9.044;2023-02-18T06:57:11;98576.69;;;16.23;49.22
13387;BME280;6763;48.524;9.044;2023-02-18T06:59:37;98584.22;;;16.33;48.90
13387;BME280;6763;48.524;9.044;2023-02-18T07:02:02;98581.38;;;16.41;48.46
13387;BME280;6763;48.524;9.044;2023-02-18T07:04:27;98587.25;;;16.49;48.42
13387;BME280;6763;48.524;9.044;2023-02-18T07:06:53;98593.38;;;16.48;48.46
13387;BME280;6763;48.524;9.044;2023-02-18T07:09:18;98602.66;;;16.59;48.08
13387;BME280;6763;48.524;9.044;2023-02-18T07:11:43;98604.94;;;16.70;48.07
13387;BME280;6763;48.524;9.044;2023-02-18T07:14:09;98593.47;;;16.74;47.76
13387;BME280;6763;48.524;9.044;2023-02-18T07:16:34;98591.56;;;16.79;47.58
13387;BME280;6763;48.524;9.044;2023-02-18T07:18:59;98592.28;;;16.84;47.59
13387;BME280;6763;48.524;9.044;2023-02-18T07:21:25;98593.44;;;16.76;47.42
13387;BME280;6763;48.524;9.044;2023-02-18T07:23:50;98599.50;;;16.76;47.73
13387;BME280;6763;48.524;9.044;2023-02-18T07:26:15;98601.00;;;16.85;47.31
13387;BME280;6763;48.524;9.044;2023-02-18T07:28:41;98595.72;;;16.86;47.13
13387;BME280;6763;48.524;9.044;2023-02-18T07:31:07;98595.53;;;16.92;47.31
13387;BME280;6763;48.524;9.044;2023-02-18T07:33:32;98600.03;;;16.87;47.06
13387;BME280;6763;48.524;9.044;2023-02-18T07:36:00;98598.53;;;16.80;47.02
13387;BME280;6763;48.524;9.044;2023-02-18T07:38:26;98601.44;;;16.99;46.88
13387;BME280;6763;48.524;9.044;2023-02-18T07:40:53;98588.81;;;17.11;46.88
13387;BME280;6763;48.524;9.044;2023-02-18T07:43:19;98583.31;;;16.93;46.71
13387;BME280;6763;48.524;9.044;2023-02-18T07:45:44;98587.53;;;16.97;46.96
13387;BME280;6763;48.524;9.044;2023-02-18T07:48:10;98589.53;;;16.89;46.91
13387;BME280;6763;48.524;9.044;2023-02-18T07:50:42;98590.59;;;16.83;47.07
13387;BME280;6763;48.524;9.044;2023-02-18T07:53:10;98587.09;;;17.10;46.48
13387;BME280;6763;48.524;9.044;2023-02-18T07:55:36;98580.31;;;17.31;45.96
13387;BME280;6763;48.524;9.044;2023-02-18T07:58:39;98576.41;;;17.44;45.51
13387;BME280;6763;48.524;9.044;2023-02-18T08:01:10;98585.47;;;17.60;45.27
13387;BME280;6763;48.524;9.044;2023-02-18T08:03:37;98581.91;;;17.63;45.09
13387;BME280;6763;48.524;9.044;2023-02-18T08:06:03;98581.56;;;17.72;44.75
13387;BME280;6763;48.524;9.044;2023-02-18T08:08:30;98582.19;;;17.54;44.95
13387;BME280;6763;48.524;9.044;2023-02-18T08:10:57;98584.47;;;17.64;44.79
13387;BME280;6763;48.524;9.044;2023-02-18T08:13:23;98578.50;;;17.61;44.79
13387;BME280;6763;48.524;9.044;2023-02-18T08:15:49;98577.38;;;17.68;44.45
13387;BME280;6763;48.524;9.044;2023-02-18T08:18:19;98563.03;;;17.78;44.16
13387;BME280;6763;48.524;9.044;2023-02-18T08:20:46;98576.19;;;17.76;44.30
13387;BME280;6763;48.524;9.044;2023-02-18T08:23:13;98572.72;;;17.76;44.08
13387;BME280;6763;48.524;9.044;2023-02-18T08:25:38;98573.44;;;17.79;43.87
13387;BME280;6763;48.524;9.044;2023-02-18T08:28:03;98570.91;;;17.53;44.51
13387;BME280;6763;48.524;9.044;2023-02-18T08:30:29;98569.78;;;17.60;44.55
13387;BME280;6763;48.524;9.044;2023-02-18T08:32:54;98566.09;;;17.66;44.26
13387;BME280;6763;48.524;9.044;2023-02-18T08:35:20;98561.75;;;17.65;44.34
13387;BME280;6763;48.524;9.044;2023-02-18T08:37:45;98556.31;;;17.71;43.87
13387;BME280;6763;48.524;9.044;2023-02-18T08:40:11;98558.28;;;17.64;43.97
13387;BME280;6763;48.524;9.044;2023-02-18T08:42:38;98564.22;;;17.69;44.08
13387;BME280;6763;48.524;9.044;2023-02-18T08:45:04;98565.75;;;17.75;43.97
13387;BME280;6763;48.524;9.044;2023-02-18T08:47:30;98563.72;;;17.83;43.75
13387;BME280;6763;48.524;9.044;2023-02-18T08:49:56;98557.38;;;17.65;44.12
13387;BME280;6763;48.524;9.044;2023-02-18T08:52:22;98559.53;;;17.79;43.98
13387;BME280;6763;48.524;9.044;2023-02-18T08:54:47;98557.09;;;17.73;44.23
13387;BME280;6763;48.524;9.044;2023-02-18T08:57:12;98560.25;;;17.82;44.07
13387;BME280;6763;48.524;9.044;2023-02-18T08:59:38;98547.91;;;17.86;43.73
13387;BME280;6763;48.524;9.044;2023-02-18T09:02:03;98558.22;;;17.90;44.06
13387;BME280;6763;48.524;9.044;2023-02-18T09:04:29;98552.41;;;17.82;43.75
13387;BME280;6763;48.524;9.044;2023-02-18T09:06:54;98557.81;;;17.78;44.16
13387;BME280;6763;48.524;9.044;2023-02-18T09:09:20;98542.00;;;17.81;44.17
13387;BME280;6763;48.524;9.044;2023-02-18T09:11:45;98557.63;;;17.82;44.39
13387;BME280;6763;48.524;9.044;2023-02-18T09:14:11;98548.09;;;17.81;44.24
13387;BME280;6763;48.524;9.044;2023-02-18T09:16:38;98549.84;;;17.81;44.45
13387;BME280;6763;48.524;9.044;2023-02-18T09:19:04;98538.56;;;17.79;44.59
13387;BME280;6763;48.524;9.044;2023-02-18T09:21:30;98546.38;;;17.80;44.44
13387;BME280;6763;48.524;9.044;2023-02-18T09:23:56;98532.69;;;17.72;44.39
13387;BME280;6763;48.524;9.044;2023-02-18T09:26:22;98536.56;;;17.85;44.55
13387;BME280;6763;48.524;9.044;2023-02-18T09:28:49;98532.69;;;17.97;44.45
13387;BME280;6763;48.524;9.044;2023-02-18T09:31:17;98531.81;;;17.96;44.33
13387;BME280;6763;48.524;9.044;2023-02-18T09:33:54;98521.50;;;17.92;44.50
13387;BME280;6763;48.524;9.044;2023-02-18T09:36:20;98524.53;;;18.05;44.25
13387;BME280;6763;48.524;9.044;2023-02-18T09:38:46;98516.09;;;18.20;43.81
13387;BME280;6763;48.524;9.044;2023-02-18T09:41:38;98508.91;;;18.25;43.63
13387;BME280;6763;48.524;9.044;2023-02-18T09:44:29;98503.94;;;18.40;43.24
13387;BME280;6763;48.524;9.044;2023-02-18T09:47:59;98500.66;;;18.58;42.69
13387;BME280;6763;48.524;9.044;2023-02-18T09:52:35;98507.00;;;18.75;42.24
13387;BME280;6763;48.524;9.044;2023-02-18T09:57:46;98487.53;;;18.80;41.66
13387;BME280;6763;48.524;9.044;2023-02-18T10:00:16;98493.81;;;18.76;42.04
13387;BME280;6763;48.524;9.044;2023-02-18T10:02:56;98480.75;;;18.96;41.40
13387;BME280;6763;48.524;9.044;2023-02-18T10:05:22;98493.06;;;19.16;41.24
13387;BME280;6763;48.524;9.044;2023-02-18T10:07:50;98475.75;;;19.32;40.77
13387;BME280;6763;48.524;9.044;2023-02-18T10:10:30;98486.41;;;19.28;40.55
13387;BME280;6763;48.524;9.044;2023-02-18T10:12:59;98476.06;;;19.25;40.38
13387;BME280;6763;48.524;9.044;2023-02-18T10:15:27;98473.94;;;19.33;40.44
13387;BME280;6763;48.524;9.044;2023-02-18T10:17:55;98478.69;;;19.25;40.73
13387;BME280;6763;48.524;9.044;2023-02-18T10:20:25;98493.25;;;19.32;40.74
13387;BME280;6763;48.524;9.044;2023-02-18T10:22:53;98489.44;;;19.40;40.72
13387;BME280;6763;48.524;9.044;2023-02-18T10:25:22;98485.19;;;19.36;40.55
13387;BME280;6763;48.524;9.044;2023-02-18T10:27:50;98488.72;;;19.35;40.96
13387;BME280;6763;48.524;9.044;2023-02-18T10:30:20;98492.41;;;19.31;40.66
13387;BME280;6763;48.524;9.044;2023-02-18T10:32:47;98482.09;;;19.27;41.02
13387;BME280;6763;48.524;9.044;2023-02-18T10:35:46;98494.81;;;19.15;40.91
13387;BME280;6763;48.524;9.044;2023-02-18T10:38:32;98490.03;;;19.25;40.70
13387;BME280;6763;48.524;9.044;2023-02-18T10:46:20;98474.16;;;19.08;40.78
13387;BME280;6763;48.524;9.044;2023-02-18T10:51:19;98486.66;;;19.01;41.12
13387;BME280;6763;48.524;9.044;2023-02-18T10:53:47;98489.47;;;18.97;41.21
13387;BME280;6763;48.524;9.044;2023-02-18T11:01:36;98492.84;;;19.00;40.73
13387;BME280;6763;48.524;9.044;2023-02-18T11:04:33;98506.00;;;18.99;40.69
13387;BME280;6763;48.524;9.044;2023-02-18T11:07:12;98509.97;;;19.09;40.32
13387;BME280;6763;48.524;9.044;2023-02-18T11:09:48;98501.16;;;19.10;40.63
13387;BME280;6763;48.524;9.044;2023-02-18T11:12:33;98500.63;;;19.02;40.71
13387;BME280;6763;48.524;9.044;2023-02-18T11:17:37;98493.81;;;18.98;40.70
13387;BME280;6763;48.524;9.044;2023-02-18T11:20:24;98481.41;;;19.01;40.37
13387;BME280;6763;48.524;9.044;2023-02-18T11:22:51;98463.44;;;19.12;40.14
13387;BME280;6763;48.524;9.044;2023-02-18T11:25:25;98454.13;;;19.26;39.79
13387;BME280;6763;48.524;9.044;2023-02-18T11:27:54;98464.06;;;19.19;39.94
13387;BME280;6763;48.524;9.044;2023-02-18T11:30:21;98454.13;;;19.26;39.81
13387;BME280;6763;48.524;9.044;2023-02-18T11:32:49;98439.69;;;19.15;39.63
13387;BME280;6763;48.524;9.044;2023-02-18T11:35:22;98453.88;;;19.11;39.75
13387;BME280;6763;48.524;9.044;2023-02-18T11:37:48;98449.41;;;19.13;39.67
13387;BME280;6763;48.524;9.044;2023-02-18T11:40:26;98452.41;;;19.04;39.55
13387;BME280;6763;48.524;9.044;2023-02-18T11:43:12;98445.91;;;18.93;40.23
13387;BME280;6763;48.524;9.044;2023-02-18T11:45:39;98451.59;;;18.82;40.46
13387;BME280;6763;48.524;9.044;2023-02-18T11:48:15;98445.50;;;18.82;40.64
13387;BME280;6763;48.524;9.044;2023-02-18T11:50:40;98446.59;;;18.76;40.31
13387;BME280;6763;48.524;9.044;2023-02-18T11:53:33;98429.84;;;18.58;40.59
13387;BME280;6763;48.524;9.044;2023-02-18T11:56:05;98426.78;;;18.47;40.96
13387;BME280;6763;48.524;9.044;2023-02-18T11:58:38;98428.13;;;18.57;40.78
13387;BME280;6763;48.524;9.044;2023-02-18T12:01:13;98448.03;;;18.40;41.22
13387;BME280;6763;48.524;9.044;2023-02-18T12:03:47;98412.09;;;18.43;40.91
13387;BME280;6763;48.524;9.044;2023-02-18T12:09:54;98426.31;;;18.60;40.66
13387;BME280;6763;48.524;9.044;2023-02-18T12:12:34;98421.19;;;18.56;40.36
13387;BME280;6763;48.524;9.044;2023-02-18T12:15:04;98406.25;;;18.58;40.07
13387;BME280;6763;48.524;9.044;2023-02-18T12:17:46;98396.22;;;18.68;39.72
13387;BME280;6763;48.524;9.044;2023-02-18T12:20:42;98407.22;;;18.78;39.51
13387;BME280;6763;48.524;9.044;2023-02-18T12:42:41;98401.69;;;19.04;38.09
13387;BME280;6763;48.524;9.044;2023-02-18T12:45:40;98392.50;;;18.94;38.10
13387;BME280;6763;48.524;9.044;2023-02-18T12:53:52;98404.03;;;19.11;38.03
13387;BME280;6763;48.524;9.044;2023-02-18T12:59:50;98404.72;;;19.15;38.09
13387;BME280;6763;48.524;9.044;2023-02-18T13:15:49;98380.31;;;19.33;37.46
13387;BME280;6763;48.524;9.044;2023-02-18T13:18:29;98386.75;;;19.26;37.36
13387;BME280;6763;48.524;9.044;2023-02-18T13:21:00;98371.50;;;19.34;36.96
13387;BME280;6763;48.524;9.044;2023-02-18T13:23:40;98368.38;;;19.26;36.42
13387;BME280;6763;48.524;9.044;2023-02-18T13:26:09;98368.13;;;19.32;36.45
13387;BME280;6763;48.524;9.044;2023-02-18T13:34:31;98360.91;;;19.37;36.51
13387;BME280;6763;48.524;9.044;2023-02-18T13:40:01;98366.09;;;19.39;36.49
13387;BME280;6763;48.524;9.044;2023-02-18T13:52:38;98366.97;;;19.58;35.61
13387;BME280;6763;48.524;9.044;2023-02-18T13:55:04;98358.88;;;19.62;35.30
13387;BME280;6763;48.524;9.044;2023-02-18T13:57:29;98355.19;;;19.66;35.39
13387;BME280;6763;48.524;9.044;2023-02-18T13:59:58;98356.41;;;19.78;34.66
13387;BME280;6763;48.524;9.044;2023-02-18T14:02:32;98354.50;;;19.82;34.48
13387;BME280;6763;48.524;9.044;2023-02-18T14:10:25;98383.88;;;19.90;34.19
13387;BME280;6763;48.524;9.044;2023-02-18T14:20:43;98334.81;;;19.71;34.81
13387;BME280;6763;48.524;9.044;2023-02-18T14:28:48;98362.50;;;19.60;34.45
13387;BME280;6763;48.524;9.044;2023-02-18T14:34:29;98324.78;;;19.79;34.28
13387;BME280;6763;48.524;9.044;2023-02-18T14:36:31;98347.38;;;19.84;34.07
13387;BME280;6763;48.524;9.044;2023-02-18T14:39:33;98348.31;;;19.83;33.87
13387;BME280;6763;48.524;9.044;2023-02-18T14:50:02;98342.41;;;19.77;34.39
13387;BME280;6763;48.524;9.044;2023-02-18T14:52:37;98349.44;;;19.77;34.40
13387;BME280;6763;48.524;9.044;2023-02-18T14:55:13;98332.66;;;19.79;34.75
13387;BME280;6763;48.524;9.044;2023-02-18T14:57:45;98337.09;;;19.79;34.91
13387;BME280;6763;48.524;9.044;2023-02-18T15:00:15;98334.38;;;19.80;35.05
13387;BME280;6763;48.524;9.044;2023-02-18T15:02:41;98331.75;;;19.80;35.04
13387;BME280;6763;48.524;9.044;2023-02-18T15:05:18;98321.75;;;19.70;35.20
13387;BME280;6763;48.524;9.044;2023-02-18T15:08:24;98324.66;;;19.83;34.97
13387;BME280;6763;48.524;9.044;2023-02-18T15:13:27;98321.19;;;19.63;35.31
13387;BME280;6763;48.524;9.044;2023-02-18T15:16:04;98321.88;;;19.67;35.38
13387;BME280;6763;48.524;9.044;2023-02-18T15:18:37;98325.38;;;19.86;35.30
13387;BME280;6763;48.524;9.044;2023-02-18T15:21:06;98330.25;;;19.94;35.13
13387;BME280;6763;48.524;9.044;2023-02-18T15:23:36;98319.72;;;20.31;34.45
13387;BME280;6763;48.524;9.044;2023-02-18T15:26:03;98305.22;;;20.22;34.44
13387;BME280;6763;48.524;9.044;2023-02-18T15:28:31;98332.94;;;20.11;35.08
13387;BME280;6763;48.524;9.044;2023-02-18T15:30:58;98335.91;;;20.03;35.13
13387;BME280;6763;48.524;9.044;2023-02-18T15:33:25;98333.28;;;20.03;35.33
13387;BME280;6763;48.524;9.044;2023-02-18T15:35:51;98337.69;;;20.03;35.56
13387;BME280;6763;48.524;9.044;2023-02-18T15:38:24;98327.34;;;20.00;35.11
13387;BME280;6763;48.524;9.044;2023-02-18T15:40:51;98342.34;;;19.79;34.82
13387;BME280;6763;48.524;9.044;2023-02-18T15:43:22;98336.53;;;19.72;34.57
13387;BME280;6763;48.524;9.044;2023-02-18T15:45:51;98332.84;;;19.58;34.84
13387;BME280;6763;48.524;9.044;2023-02-18T15:48:45;98326.31;;;19.48;35.15
13387;BME280;6763;48.524;9.044;2023-02-18T15:51:13;98326.81;;;19.36;35.21
13387;BME280;6763;48.524;9.044;2023-02-18T15:53:41;98329.78;;;19.28;35.07
13387;BME280;6763;48.524;9.044;2023-02-18T15:56:10;98331.19;;;19.16;35.38
13387;BME280;6763;48.524;9.044;2023-02-18T15:58:39;98346.72;;;19.21;35.24
13387;BME280;6763;48.524;9.044;2023-02-18T16:01:06;98334.59;;;19.18;35.30
13387;BME280;6763;48.524;9.044;2023-02-18T16:08:53;98332.03;;;19.17;35.30
13387;BME280;6763;48.524;9.044;2023-02-18T16:11:23;98330.38;;;19.14;35.45
13387;BME280;6763;48.524;9.044;2023-02-18T16:13:49;98313.34;;;19.04;35.63